createdAt,value
2022-08-05T00:01:36.390Z,6.63
2022-08-05T00:04:16.839Z,8.73
2022-08-05T00:06:44.226Z,7.43
2022-08-05T00:09:12.823Z,5.30
2022-08-05T00:11:49.383Z,4.85
2022-08-05T00:14:22.243Z,5.93
2022-08-05T00:16:54.294Z,3.90
2022-08-05T00:19:25.078Z,6.15
2022-08-05T00:22:00.591Z,8.80
2022-08-05T00:24:31.027Z,4.85
2022-08-05T00:26:58.634Z,9.13
2022-08-05T00:29:25.373Z,7.45
2022-08-05T00:32:12.838Z,4.63
2022-08-05T00:34:54.423Z,7.97
2022-08-05T00:37:35.281Z,5.32
2022-08-05T00:40:14.292Z,7.75
2022-08-05T00:42:48.222Z,5.45
2022-08-05T00:45:15.870Z,6.15
2022-08-05T00:47:57.228Z,3.47
2022-08-05T00:50:28.877Z,8.73
2022-08-05T00:52:55.486Z,5.15
2022-08-05T00:55:23.061Z,6.72
2022-08-05T00:58:00.830Z,7.75
2022-08-05T01:00:29.226Z,4.13
2022-08-05T01:02:57.139Z,4.10
2022-08-05T01:05:24.815Z,5.05
2022-08-05T01:08:39.201Z,6.82
2022-08-05T01:10:51.696Z,3.67
2022-08-05T01:13:27.464Z,4.10
2022-08-05T01:16:20.982Z,4.05
2022-08-05T01:18:56.749Z,3.35
2022-08-05T01:21:37.997Z,3.00
2022-08-05T01:24:14.476Z,3.33
2022-08-05T01:27:19.596Z,3.47
2022-08-05T01:29:52.543Z,6.97
2022-08-05T01:32:27.679Z,5.88
2022-08-05T01:35:10.564Z,6.15
2022-08-05T01:37:45.225Z,4.00
2022-08-05T01:40:17.908Z,6.63
2022-08-05T01:42:47.129Z,4.60
2022-08-05T01:45:16.661Z,5.78
2022-08-05T01:47:46.360Z,6.47
2022-08-05T01:50:28.753Z,3.75
2022-08-05T01:53:01.574Z,3.90
2022-08-05T01:55:31.133Z,5.10
2022-08-05T01:58:29.708Z,4.80
2022-08-05T02:00:52.242Z,7.63
2022-08-05T02:03:31.358Z,4.72
2022-08-05T02:06:12.606Z,4.82
2022-08-05T02:08:58.536Z,6.57
2022-08-05T02:11:32.936Z,6.95
2022-08-05T02:14:07.400Z,8.68
2022-08-05T02:16:45.294Z,4.82
2022-08-05T02:19:34.417Z,6.15
2022-08-05T02:22:25.908Z,4.78
2022-08-05T02:25:01.885Z,6.88
2022-08-05T02:27:57.718Z,11.57
2022-08-05T02:30:17.891Z,8.23
2022-08-05T02:32:50.152Z,8.68
2022-08-05T02:35:27.814Z,9.82
2022-08-05T02:37:56.689Z,6.93
2022-08-05T02:40:27.566Z,9.48
2022-08-05T02:42:55.554Z,9.82
2022-08-05T02:45:25.390Z,7.13
2022-08-05T02:48:07.532Z,5.93
2022-08-05T02:50:44.127Z,8.18
2022-08-05T02:53:16.074Z,8.25
2022-08-05T02:55:59.562Z,7.70
2022-08-05T02:58:28.866Z,9.65
2022-08-05T03:01:01.743Z,8.60
2022-08-05T03:03:33.654Z,9.55
2022-08-05T03:06:54.852Z,11.10
2022-08-05T03:08:52.334Z,15.25
2022-08-05T03:11:56.621Z,10.15
2022-08-05T03:14:13.742Z,7.32
2022-08-05T03:16:40.550Z,10.23
2022-08-05T03:19:17.357Z,9.65
2022-08-05T03:21:53.725Z,8.10
2022-08-05T03:24:29.952Z,6.63
2022-08-05T03:26:58.689Z,7.33
2022-08-05T03:29:45.704Z,7.90
2022-08-05T03:32:12.293Z,8.45
2022-08-05T03:34:41.744Z,7.97
2022-08-05T03:37:08.641Z,6.15
2022-08-05T03:39:57.752Z,8.88
2022-08-05T03:42:24.024Z,7.70
2022-08-05T03:44:53.628Z,8.85
2022-08-05T03:47:20.075Z,10.23
2022-08-05T03:49:51.536Z,8.38
2022-08-05T03:52:38.008Z,8.37
2022-08-05T03:56:04.183Z,9.90
2022-08-05T03:58:10.790Z,11.15
2022-08-05T04:00:41.961Z,9.07
2022-08-05T04:03:15.060Z,11.00
2022-08-05T04:05:55.727Z,13.02
2022-08-05T04:08:35.105Z,9.03
2022-08-05T04:11:05.927Z,12.33
2022-08-05T04:13:51.074Z,13.33
2022-08-05T04:16:25.012Z,11.93
2022-08-05T04:18:53.921Z,12.83
2022-08-05T04:22:05.319Z,11.25
2022-08-05T04:24:09.118Z,10.87
2022-08-05T04:26:45.511Z,12.50
2022-08-05T04:29:13.146Z,11.93
2022-08-05T04:31:40.875Z,10.43
2022-08-05T04:34:31.247Z,11.53
2022-08-05T04:36:54.535Z,12.57
2022-08-05T04:39:21.708Z,13.77
2022-08-05T04:41:48.772Z,12.47
2022-08-05T04:44:21.332Z,13.70
2022-08-05T04:46:56.621Z,12.80
2022-08-05T04:49:24.907Z,10.77
2022-08-05T04:52:07.660Z,10.10
2022-08-05T04:54:34.315Z,9.93
2022-08-05T04:57:00.754Z,10.67
2022-08-05T04:59:39.100Z,11.00
2022-08-05T05:02:36.464Z,14.13
2022-08-05T05:05:01.821Z,15.23
2022-08-05T05:07:32.395Z,15.65
2022-08-05T05:09:59.166Z,19.63
2022-08-05T05:12:29.162Z,19.67
2022-08-05T05:14:55.667Z,20.40
2022-08-05T05:17:24.588Z,22.03
2022-08-05T05:19:54.611Z,23.87
2022-08-05T05:22:23.446Z,24.37
2022-08-05T05:24:57.654Z,23.50
2022-08-05T05:27:41.439Z,23.70
2022-08-05T05:30:29.770Z,23.00
2022-08-05T05:33:03.890Z,23.70
2022-08-05T05:35:45.140Z,21.83
2022-08-05T05:38:13.426Z,23.07
2022-08-05T05:40:48.074Z,22.90
2022-08-05T05:43:27.646Z,21.30
2022-08-05T05:46:07.620Z,24.80
2022-08-05T05:48:41.825Z,25.20
2022-08-05T05:51:15.135Z,24.90
2022-08-05T05:53:54.495Z,26.37
2022-08-05T05:56:26.099Z,24.20
2022-08-05T05:59:03.241Z,26.60
2022-08-05T06:01:37.349Z,26.80
2022-08-05T06:04:05.478Z,28.43
2022-08-05T06:06:34.817Z,29.13
2022-08-05T06:09:02.106Z,29.95
2022-08-05T06:11:31.020Z,30.47
2022-08-05T06:13:57.858Z,31.07
2022-08-05T06:16:31.067Z,31.10
2022-08-05T06:19:05.870Z,31.00
2022-08-05T06:21:36.971Z,31.30
2022-08-05T06:24:12.212Z,31.27
2022-08-05T06:26:51.084Z,32.70
2022-08-05T06:29:25.221Z,31.67
2022-08-05T06:32:06.414Z,32.30
2022-08-05T06:34:48.532Z,33.30
2022-08-05T06:37:55.645Z,32.67
2022-08-05T06:40:07.055Z,32.10
2022-08-05T06:42:33.476Z,32.00
2022-08-05T06:45:00.022Z,34.70
2022-08-05T06:48:36.592Z,41.47
2022-08-05T06:50:18.516Z,36.93
2022-08-05T06:52:58.389Z,38.63
2022-08-05T06:55:36.399Z,38.70
2022-08-05T06:58:20.605Z,38.37
2022-08-05T07:00:50.370Z,40.50
2022-08-05T07:03:17.027Z,40.37
2022-08-05T07:05:43.841Z,40.00
2022-08-05T07:08:12.762Z,38.50
2022-08-05T07:10:52.919Z,40.73
2022-08-05T07:13:57.990Z,42.23
2022-08-05T07:17:58.981Z,40.80
2022-08-05T07:22:16.536Z,44.93
2022-08-05T07:24:52.435Z,48.43
2022-08-05T07:27:19.216Z,46.90
2022-08-05T07:30:25.407Z,47.17
2022-08-05T07:32:38.459Z,48.17
2022-08-05T07:36:04.527Z,44.47
2022-08-05T07:37:55.653Z,43.57
2022-08-05T07:40:32.223Z,48.10
2022-08-05T07:42:59.203Z,50.90
2022-08-05T07:45:56.251Z,47.47
2022-08-05T07:48:12.634Z,49.53
2022-08-05T07:50:39.917Z,45.90
2022-08-05T07:53:09.063Z,45.22
2022-08-05T07:56:05.287Z,44.67
2022-08-05T07:58:57.568Z,41.73
2022-08-05T08:01:13.124Z,45.53
2022-08-05T08:03:44.749Z,42.80
2022-08-05T08:06:11.525Z,48.90
2022-08-05T08:08:38.137Z,43.47
2022-08-05T08:11:04.802Z,48.53
2022-08-05T08:13:42.715Z,43.83
2022-08-05T08:16:35.120Z,39.83
2022-08-05T08:19:02.486Z,41.40
2022-08-05T08:21:28.872Z,36.73
2022-08-05T08:24:02.216Z,36.67
2022-08-05T08:26:30.980Z,32.03
2022-08-05T08:29:21.998Z,33.60
2022-08-05T08:31:46.007Z,32.60
2022-08-05T08:34:13.282Z,30.03
2022-08-05T08:36:49.204Z,31.33
2022-08-05T08:39:19.775Z,30.13
2022-08-05T08:41:52.711Z,33.00
2022-08-05T08:45:22.307Z,29.90
2022-08-05T08:47:47.014Z,28.13
2022-08-05T08:50:31.930Z,22.30
2022-08-05T08:53:01.559Z,20.27
2022-08-05T08:56:02.773Z,20.10
2022-08-05T08:58:15.827Z,18.97
2022-08-05T09:00:42.918Z,18.63
2022-08-05T09:03:11.951Z,17.27
2022-08-05T09:06:08.911Z,15.73
2022-08-05T09:08:30.177Z,15.80
2022-08-05T09:10:57.435Z,15.80
2022-08-05T09:13:24.515Z,13.27
2022-08-05T09:15:58.271Z,13.60
2022-08-05T09:18:25.606Z,15.10
2022-08-05T09:20:52.015Z,13.70
2022-08-05T09:23:21.903Z,14.90
2022-08-05T09:26:06.155Z,14.93
2022-08-05T09:28:35.255Z,15.30
2022-08-05T09:32:38.797Z,16.37
2022-08-05T09:34:01.136Z,17.63
2022-08-05T09:36:54.194Z,17.43
2022-08-05T09:39:41.298Z,19.13
2022-08-05T09:42:17.575Z,19.73
2022-08-05T09:44:52.607Z,20.10
2022-08-05T09:47:25.586Z,21.17
2022-08-05T09:50:02.206Z,24.67
2022-08-05T09:52:31.659Z,20.03
2022-08-05T09:55:55.468Z,19.23
2022-08-05T09:57:54.353Z,19.00
2022-08-05T10:00:26.376Z,19.33
2022-08-05T10:02:58.366Z,18.43
2022-08-05T10:05:27.866Z,16.63
2022-08-05T10:08:34.603Z,14.00
2022-08-05T10:10:54.481Z,13.37
2022-08-05T10:13:47.457Z,11.43
2022-08-05T10:16:42.056Z,12.27
2022-08-05T10:19:23.661Z,10.73
2022-08-05T10:21:58.853Z,11.50
2022-08-05T10:24:26.970Z,12.17
2022-08-05T10:27:00.274Z,11.30
2022-08-05T10:30:06.668Z,11.73
2022-08-05T10:32:51.789Z,9.87
2022-08-05T10:35:02.922Z,11.37
2022-08-05T10:37:41.348Z,9.97
2022-08-05T10:40:28.041Z,10.57
2022-08-05T10:43:12.492Z,10.03
2022-08-05T10:45:39.744Z,8.07
2022-08-05T10:48:36.118Z,8.93
2022-08-05T10:51:22.009Z,8.20
2022-08-05T10:53:58.493Z,7.40
2022-08-05T10:56:30.471Z,9.47
2022-08-05T10:59:07.295Z,6.80
2022-08-05T11:01:54.560Z,7.23
2022-08-05T11:04:30.908Z,11.87
2022-08-05T11:06:58.417Z,6.67
2022-08-05T11:09:32.007Z,7.63
2022-08-05T11:12:27.308Z,6.97
2022-08-05T11:16:00.602Z,6.77
2022-08-05T11:18:26.473Z,6.10
2022-08-05T11:20:53.848Z,6.23
2022-08-05T11:23:33.372Z,6.83
2022-08-05T11:26:28.590Z,5.03
2022-08-05T11:29:06.644Z,6.20
2022-08-05T11:31:58.458Z,6.53
2022-08-05T11:34:51.144Z,4.33
2022-08-05T11:38:37.294Z,5.20
2022-08-05T11:41:35.084Z,5.53
2022-08-05T11:44:40.697Z,8.13
2022-08-05T11:47:11.824Z,7.17
2022-08-05T11:49:42.840Z,5.53
2022-08-05T11:52:11.868Z,6.20
2022-08-05T11:54:40.575Z,6.10
2022-08-05T11:57:24.410Z,5.97
2022-08-05T11:59:52.666Z,6.10
2022-08-05T12:02:31.467Z,3.60
2022-08-05T12:05:00.472Z,6.47
2022-08-05T12:08:03.398Z,4.97
2022-08-05T12:10:25.229Z,3.90
2022-08-05T12:13:16.867Z,7.30
2022-08-05T12:15:45.449Z,6.03
2022-08-05T12:18:32.329Z,4.33
2022-08-05T12:21:30.666Z,3.17
2022-08-05T12:24:07.077Z,4.57
2022-08-05T12:26:49.978Z,4.33
2022-08-05T12:29:22.904Z,2.93
2022-08-05T12:31:53.071Z,3.37
2022-08-05T12:34:25.841Z,6.93
2022-08-05T12:36:53.733Z,4.72
2022-08-05T12:39:21.664Z,3.67
2022-08-05T12:41:50.099Z,4.20
2022-08-05T12:44:33.417Z,5.82
2022-08-05T12:47:02.542Z,4.72
2022-08-05T12:50:03.725Z,5.05
2022-08-05T12:52:39.598Z,2.65
2022-08-05T12:55:32.789Z,3.05
2022-08-05T12:58:50.632Z,2.92
2022-08-05T13:02:02.361Z,2.78
2022-08-05T13:03:39.002Z,4.13
2022-08-05T13:06:12.383Z,5.80
2022-08-05T13:08:38.947Z,2.60
2022-08-05T13:11:07.756Z,2.50
2022-08-05T13:14:05.201Z,3.85
2022-08-05T13:16:28.624Z,2.78
2022-08-05T13:18:58.687Z,4.47
2022-08-05T13:21:28.374Z,3.25
2022-08-05T13:24:05.007Z,4.00
2022-08-05T13:26:31.713Z,3.40
2022-08-05T13:28:59.247Z,2.72
2022-08-05T13:32:03.303Z,4.07
2022-08-05T13:34:23.989Z,2.33
2022-08-05T13:36:53.760Z,3.75
2022-08-05T13:39:24.592Z,2.85
2022-08-05T13:42:07.715Z,5.10
2022-08-05T13:44:45.034Z,5.93
2022-08-05T13:47:35.598Z,5.05
2022-08-05T13:50:04.070Z,3.72
2022-08-05T13:52:31.416Z,6.75
2022-08-05T13:55:01.824Z,4.82
2022-08-05T13:57:48.728Z,3.08
2022-08-05T14:00:14.811Z,4.35
2022-08-05T14:02:42.636Z,4.97
2022-08-05T14:05:15.090Z,3.50
2022-08-05T14:08:00.083Z,3.05
2022-08-05T14:10:32.232Z,3.17
2022-08-05T14:12:59.357Z,4.65
2022-08-05T14:16:07.885Z,5.57
2022-08-05T14:18:17.584Z,5.45
2022-08-05T14:20:54.304Z,6.50
2022-08-05T14:23:25.671Z,5.40
2022-08-05T14:25:58.391Z,5.53
2022-08-05T14:28:29.698Z,2.65
2022-08-05T14:30:57.374Z,3.20
2022-08-05T14:33:24.184Z,5.75
2022-08-05T14:35:52.312Z,4.20
2022-08-05T14:38:32.979Z,3.83
2022-08-05T14:41:05.945Z,3.75
2022-08-05T14:43:58.986Z,5.88
2022-08-05T14:46:19.843Z,4.72
2022-08-05T14:48:49.917Z,4.32
2022-08-05T14:51:17.698Z,3.88
2022-08-05T14:53:45.014Z,4.90
2022-08-05T14:56:12.041Z,3.72
2022-08-05T14:58:47.747Z,5.68
2022-08-05T15:01:24.347Z,3.30
2022-08-05T15:04:11.421Z,5.30
2022-08-05T15:06:38.794Z,4.05
2022-08-05T15:09:06.943Z,5.03
2022-08-05T15:11:52.027Z,6.20
2022-08-05T15:14:33.425Z,5.95
2022-08-05T15:17:03.982Z,5.05
2022-08-05T15:19:31.871Z,7.03
2022-08-05T15:22:01.186Z,6.78
2022-08-05T15:24:28.845Z,2.40
2022-08-05T15:26:56.076Z,3.88
2022-08-05T15:29:23.653Z,1.92
2022-08-05T15:31:56.448Z,2.88
2022-08-05T15:34:33.230Z,6.40
2022-08-05T15:37:06.275Z,4.63
2022-08-05T15:40:58.277Z,3.97
2022-08-05T15:42:54.336Z,2.25
2022-08-05T15:45:14.678Z,4.70
2022-08-05T15:47:43.105Z,7.22
2022-08-05T15:50:15.225Z,3.05
2022-08-05T15:52:53.029Z,2.90
2022-08-05T15:55:24.595Z,2.20
2022-08-05T15:58:08.808Z,2.90
2022-08-05T16:00:51.045Z,5.03
2022-08-05T16:03:21.947Z,2.75
2022-08-05T16:05:52.417Z,2.53
2022-08-05T16:08:19.282Z,3.05
2022-08-05T16:10:45.729Z,3.20
2022-08-05T16:13:12.553Z,2.75
2022-08-05T16:15:49.712Z,6.60
2022-08-05T16:18:16.651Z,2.88
2022-08-05T16:20:43.982Z,2.72
2022-08-05T16:23:12.527Z,3.05
2022-08-05T16:25:39.357Z,2.67
2022-08-05T16:28:09.408Z,4.07
2022-08-05T16:30:36.355Z,2.72
2022-08-05T16:33:03.012Z,5.95
2022-08-05T16:35:33.690Z,8.05
2022-08-05T16:38:18.360Z,2.67
2022-08-05T16:40:59.563Z,2.75
2022-08-05T16:43:30.092Z,2.22
2022-08-05T16:46:04.578Z,5.28
2022-08-05T16:48:35.878Z,2.90
2022-08-05T16:51:02.479Z,2.50
2022-08-05T16:54:05.862Z,2.45
2022-08-05T16:56:22.455Z,4.32
2022-08-05T16:58:49.888Z,2.25
2022-08-05T17:01:16.613Z,6.65
2022-08-05T17:03:45.559Z,5.32
2022-08-05T17:06:12.233Z,1.58
2022-08-05T17:08:52.688Z,3.80
2022-08-05T17:11:23.340Z,1.70
2022-08-05T17:14:00.543Z,4.28
2022-08-05T17:16:37.592Z,2.95
2022-08-05T17:19:07.768Z,4.50
2022-08-05T17:21:37.265Z,1.67
2022-08-05T17:24:19.570Z,2.65
2022-08-05T17:26:57.147Z,3.13
2022-08-05T17:29:32.873Z,5.80
2022-08-05T17:32:07.196Z,1.50
2022-08-05T17:34:35.049Z,2.05
2022-08-05T17:37:01.780Z,6.90
2022-08-05T17:39:34.448Z,3.78
2022-08-05T17:42:19.890Z,1.20
2022-08-05T17:44:50.222Z,1.85
2022-08-05T17:47:22.197Z,1.38
2022-08-05T17:49:59.900Z,1.77
2022-08-05T17:52:33.835Z,4.45
2022-08-05T17:55:00.708Z,2.95
2022-08-05T17:57:29.460Z,6.30
2022-08-05T18:00:05.219Z,2.08
2022-08-05T18:02:36.221Z,1.52
2022-08-05T18:05:07.579Z,2.17
2022-08-05T18:07:42.260Z,2.05
2022-08-05T18:10:11.300Z,1.40
2022-08-05T18:12:38.884Z,2.22
2022-08-05T18:15:06.136Z,1.13
2022-08-05T18:18:00.830Z,4.15
2022-08-05T18:20:29.408Z,2.63
2022-08-05T18:23:00.626Z,1.27
2022-08-05T18:25:44.961Z,1.63
2022-08-05T18:28:16.157Z,3.72
2022-08-05T18:30:51.028Z,3.50
2022-08-05T18:33:22.674Z,1.38
2022-08-05T18:36:05.205Z,1.25
2022-08-05T18:38:37.123Z,1.70
2022-08-05T18:41:55.543Z,3.00
2022-08-05T18:43:53.230Z,2.03
2022-08-05T18:46:20.655Z,5.75
2022-08-05T18:48:52.455Z,1.20
2022-08-05T18:52:04.928Z,1.23
2022-08-05T18:54:31.471Z,3.43
2022-08-05T18:57:01.826Z,2.50
2022-08-05T18:59:44.113Z,3.87
2022-08-05T19:02:27.857Z,2.63
2022-08-05T19:05:03.189Z,1.07
2022-08-05T19:07:46.654Z,2.00
2022-08-05T19:10:17.601Z,2.10
2022-08-05T19:12:46.245Z,3.20
2022-08-05T19:15:56.694Z,1.73
2022-08-05T19:18:10.394Z,1.63
2022-08-05T19:20:41.440Z,5.70
2022-08-05T19:23:22.665Z,1.20
2022-08-05T19:26:02.174Z,2.37
2022-08-05T19:28:29.731Z,1.90
2022-08-05T19:30:56.135Z,1.40
2022-08-05T19:33:33.990Z,1.57
2022-08-05T19:36:06.024Z,2.53
2022-08-05T19:38:34.018Z,3.13
2022-08-05T19:41:02.298Z,6.27
2022-08-05T19:44:05.830Z,1.27
2022-08-05T19:46:29.763Z,1.50
2022-08-05T19:49:03.335Z,1.77
2022-08-05T19:52:05.949Z,2.20
2022-08-05T19:54:26.706Z,2.50
2022-08-05T19:57:02.431Z,2.30
2022-08-05T19:59:56.036Z,2.53
2022-08-05T20:02:19.544Z,3.33
2022-08-05T20:04:48.222Z,2.70
2022-08-05T20:07:15.054Z,1.53
2022-08-05T20:09:54.616Z,2.53
2022-08-05T20:12:24.331Z,4.43
2022-08-05T20:14:52.500Z,3.67
2022-08-05T20:17:19.391Z,2.77
2022-08-05T20:19:50.290Z,1.67
2022-08-05T20:22:16.802Z,1.33
2022-08-05T20:24:43.179Z,9.73
2022-08-05T20:27:11.262Z,2.67
2022-08-05T20:29:38.216Z,2.87
2022-08-05T20:32:06.522Z,1.13
2022-08-05T20:34:33.089Z,2.20
2022-08-05T20:37:00.660Z,2.03
2022-08-05T20:39:36.601Z,5.00
2022-08-05T20:42:04.328Z,1.17
2022-08-05T20:44:32.710Z,2.70
2022-08-05T20:47:06.710Z,1.40
2022-08-05T20:49:39.296Z,3.33
2022-08-05T20:52:06.522Z,2.37
2022-08-05T20:54:43.127Z,3.80
2022-08-05T20:57:42.372Z,1.97
2022-08-05T21:00:19.813Z,1.10
2022-08-05T21:02:57.691Z,2.37
2022-08-05T21:05:24.530Z,1.70
2022-08-05T21:07:52.109Z,5.13
2022-08-05T21:10:19.099Z,3.13
2022-08-05T21:13:08.240Z,1.10
2022-08-05T21:15:33.778Z,1.97
2022-08-05T21:18:00.812Z,1.37
2022-08-05T21:20:32.748Z,2.17
2022-08-05T21:23:00.330Z,2.47
2022-08-05T21:25:33.752Z,2.80
2022-08-05T21:28:02.071Z,3.17
2022-08-05T21:30:28.643Z,2.67
2022-08-05T21:32:55.159Z,3.40
2022-08-05T21:35:29.833Z,1.57
2022-08-05T21:37:57.704Z,2.17
2022-08-05T21:40:25.092Z,2.53
2022-08-05T21:42:53.683Z,2.90
2022-08-05T21:45:25.151Z,2.33
2022-08-05T21:48:08.631Z,3.47
2022-08-05T21:50:36.702Z,1.23
2022-08-05T21:53:16.199Z,1.50
2022-08-05T21:56:06.212Z,4.70
2022-08-05T21:58:32.154Z,4.27
2022-08-05T22:00:59.818Z,3.10
2022-08-05T22:03:52.580Z,2.40
2022-08-05T22:06:15.490Z,2.10
2022-08-05T22:08:42.810Z,1.83
2022-08-05T22:11:11.931Z,2.40
2022-08-05T22:14:06.555Z,2.40
2022-08-05T22:16:50.693Z,1.80
2022-08-05T22:20:01.700Z,1.93
2022-08-05T22:22:02.077Z,4.73
2022-08-05T22:24:52.367Z,4.10
2022-08-05T22:28:10.860Z,4.03
2022-08-05T22:30:24.904Z,3.83
2022-08-05T22:32:59.208Z,2.17
2022-08-05T22:35:25.857Z,4.27
2022-08-05T22:37:58.598Z,4.50
2022-08-05T22:40:27.311Z,2.77
2022-08-05T22:42:58.164Z,1.80
2022-08-05T22:45:26.502Z,1.83
2022-08-05T22:47:55.294Z,3.33
2022-08-05T22:50:27.846Z,3.33
2022-08-05T22:52:55.074Z,2.97
2022-08-05T22:55:23.123Z,1.93
2022-08-05T22:57:51.370Z,2.60
2022-08-05T23:00:20.612Z,2.53
2022-08-05T23:02:48.604Z,4.20
2022-08-05T23:05:15.584Z,2.60
2022-08-05T23:07:48.639Z,1.83
2022-08-05T23:10:20.264Z,2.30
2022-08-05T23:12:51.478Z,3.30
2022-08-05T23:15:21.806Z,1.67
2022-08-05T23:18:02.396Z,2.47
2022-08-05T23:20:31.573Z,1.80
2022-08-05T23:22:59.119Z,4.00
2022-08-05T23:25:52.763Z,2.57
2022-08-05T23:28:12.456Z,4.17
2022-08-05T23:30:40.604Z,2.07
2022-08-05T23:33:16.347Z,2.53
2022-08-05T23:35:50.103Z,5.30
2022-08-05T23:38:16.992Z,3.27
2022-08-05T23:40:49.444Z,4.57
2022-08-05T23:43:25.443Z,5.80
2022-08-05T23:46:03.969Z,3.87
2022-08-05T23:48:30.459Z,2.30
2022-08-05T23:50:56.898Z,6.13
2022-08-05T23:53:28.425Z,1.63
2022-08-05T23:56:11.727Z,3.60
2022-08-05T23:58:38.687Z,3.00
